sensor_id;sensor_type;location;lat;lon;timestamp;P1;durP1;ratioP1;P2;durP2;ratioP2
18875;SDS011;9570;50.854;13.778;2023-12-20T00:02:09;1.70;;;1.60;;
18875;SDS011;9570;50.854;13.778;2023-12-20T00:04:34;1.90;;;1.60;;
18875;SDS011;9570;50.854;13.778;2023-12-20T00:07:00;1.60;;;1.50;;
18875;SDS011;9570;50.854;13.778;2023-12-20T00:09:26;3.50;;;1.87;;
18875;SDS011;9570;50.854;13.778;2023-12-20T00:11:52;1.70;;;1.50;;
18875;SDS011;9570;50.854;13.778;2023-12-20T00:14:17;2.63;;;1.70;;
18875;SDS011;9570;50.854;13.778;2023-12-20T00:16:42;2.13;;;1.73;;
18875;SDS011;9570;50.854;13.778;2023-12-20T00:19:08;1.90;;;1.70;;
18875;SDS011;9570;50.854;13.778;2023-12-20T00:21:33;1.37;;;1.27;;
18875;SDS011;9570;50.854;13.778;2023-12-20T00:23:59;1.50;;;1.23;;
18875;SDS011;9570;50.854;13.778;2023-12-20T00:26:24;1.93;;;1.60;;
18875;SDS011;9570;50.854;13.778;2023-12-20T00:28:50;1.50;;;1.40;;
18875;SDS011;9570;50.854;13.778;2023-12-20T00:31:15;1.50;;;1.40;;
18875;SDS011;9570;50.854;13.778;2023-12-20T00:33:41;1.40;;;1.30;;
18875;SDS011;9570;50.854;13.778;2023-12-20T00:36:08;1.40;;;1.30;;
18875;SDS011;9570;50.854;13.778;2023-12-20T00:38:34;1.77;;;1.40;;
18875;SDS011;9570;50.854;13.778;2023-12-20T00:41:00;1.67;;;1.57;;
18875;SDS011;9570;50.854;13.778;2023-12-20T00:43:25;1.50;;;1.37;;
18875;SDS011;9570;50.854;13.778;2023-12-20T00:45:51;3.00;;;1.50;;
18875;SDS011;9570;50.854;13.778;2023-12-20T00:48:17;1.50;;;1.40;;
18875;SDS011;9570;50.854;13.778;2023-12-20T00:50:42;1.97;;;1.70;;
18875;SDS011;9570;50.854;13.778;2023-12-20T00:53:08;1.40;;;1.30;;
18875;SDS011;9570;50.854;13.778;2023-12-20T00:55:33;1.40;;;1.30;;
18875;SDS011;9570;50.854;13.778;2023-12-20T00:57:59;1.70;;;1.30;;
18875;SDS011;9570;50.854;13.778;2023-12-20T01:00:25;1.37;;;1.27;;
18875;SDS011;9570;50.854;13.778;2023-12-20T01:02:50;1.67;;;1.33;;
18875;SDS011;9570;50.854;13.778;2023-12-20T01:05:16;1.30;;;1.20;;
18875;SDS011;9570;50.854;13.778;2023-12-20T01:07:42;1.80;;;1.40;;
18875;SDS011;9570;50.854;13.778;2023-12-20T01:10:08;1.30;;;1.20;;
18875;SDS011;9570;50.854;13.778;2023-12-20T01:12:33;1.30;;;1.20;;
18875;SDS011;9570;50.854;13.778;2023-12-20T01:15:00;1.37;;;1.27;;
18875;SDS011;9570;50.854;13.778;2023-12-20T01:17:26;1.23;;;1.13;;
18875;SDS011;9570;50.854;13.778;2023-12-20T01:19:51;2.13;;;1.20;;
18875;SDS011;9570;50.854;13.778;2023-12-20T01:22:17;1.47;;;1.20;;
18875;SDS011;9570;50.854;13.778;2023-12-20T01:24:42;1.20;;;1.10;;
18875;SDS011;9570;50.854;13.778;2023-12-20T01:27:07;1.20;;;1.10;;
18875;SDS011;9570;50.854;13.778;2023-12-20T01:29:33;1.53;;;1.07;;
18875;SDS011;9570;50.854;13.778;2023-12-20T01:31:58;1.20;;;1.10;;
18875;SDS011;9570;50.854;13.778;2023-12-20T01:34:24;1.40;;;1.30;;
18875;SDS011;9570;50.854;13.778;2023-12-20T01:36:49;1.30;;;1.20;;
18875;SDS011;9570;50.854;13.778;2023-12-20T01:39:15;1.03;;;0.93;;
18875;SDS011;9570;50.854;13.778;2023-12-20T01:41:40;1.23;;;1.13;;
18875;SDS011;9570;50.854;13.778;2023-12-20T01:44:05;1.57;;;1.00;;
18875;SDS011;9570;50.854;13.778;2023-12-20T01:46:31;0.90;;;0.90;;
18875;SDS011;9570;50.854;13.778;2023-12-20T01:48:56;1.23;;;1.13;;
18875;SDS011;9570;50.854;13.778;2023-12-20T01:51:22;1.10;;;1.00;;
18875;SDS011;9570;50.854;13.778;2023-12-20T01:53:48;1.47;;;1.00;;
18875;SDS011;9570;50.854;13.778;2023-12-20T01:56:14;1.10;;;1.00;;
18875;SDS011;9570;50.854;13.778;2023-12-20T01:58:43;1.10;;;1.00;;
18875;SDS011;9570;50.854;13.778;2023-12-20T02:01:12;1.10;;;1.00;;
18875;SDS011;9570;50.854;13.778;2023-12-20T02:03:38;1.00;;;1.00;;
18875;SDS011;9570;50.854;13.778;2023-12-20T02:06:07;1.03;;;0.97;;
18875;SDS011;9570;50.854;13.778;2023-12-20T02:08:33;0.80;;;0.80;;
18875;SDS011;9570;50.854;13.778;2023-12-20T02:10:59;0.87;;;0.87;;
18875;SDS011;9570;50.854;13.778;2023-12-20T02:13:25;0.90;;;0.90;;
18875;SDS011;9570;50.854;13.778;2023-12-20T02:15:51;0.90;;;0.90;;
18875;SDS011;9570;50.854;13.778;2023-12-20T02:18:17;0.90;;;0.90;;
18875;SDS011;9570;50.854;13.778;2023-12-20T02:20:43;0.80;;;0.80;;
18875;SDS011;9570;50.854;13.778;2023-12-20T02:23:08;0.70;;;0.70;;
18875;SDS011;9570;50.854;13.778;2023-12-20T02:25:34;0.80;;;0.80;;
18875;SDS011;9570;50.854;13.778;2023-12-20T02:27:59;0.87;;;0.87;;
18875;SDS011;9570;50.854;13.778;2023-12-20T02:30:25;0.67;;;0.67;;
18875;SDS011;9570;50.854;13.778;2023-12-20T02:32:51;1.00;;;0.90;;
18875;SDS011;9570;50.854;13.778;2023-12-20T02:35:17;0.90;;;0.90;;
18875;SDS011;9570;50.854;13.778;2023-12-20T02:37:42;0.60;;;0.60;;
18875;SDS011;9570;50.854;13.778;2023-12-20T02:40:08;0.80;;;0.80;;
18875;SDS011;9570;50.854;13.778;2023-12-20T02:42:34;0.80;;;0.80;;
18875;SDS011;9570;50.854;13.778;2023-12-20T02:44:59;0.77;;;0.77;;
18875;SDS011;9570;50.854;13.778;2023-12-20T02:47:24;0.80;;;0.80;;
18875;SDS011;9570;50.854;13.778;2023-12-20T02:49:50;0.80;;;0.80;;
18875;SDS011;9570;50.854;13.778;2023-12-20T02:52:17;0.70;;;0.70;;
18875;SDS011;9570;50.854;13.778;2023-12-20T02:54:43;0.70;;;0.70;;
18875;SDS011;9570;50.854;13.778;2023-12-20T02:57:08;0.80;;;0.80;;
18875;SDS011;9570;50.854;13.778;2023-12-20T02:59:34;0.80;;;0.80;;
18875;SDS011;9570;50.854;13.778;2023-12-20T03:01:59;0.90;;;0.90;;
18875;SDS011;9570;50.854;13.778;2023-12-20T03:04:25;0.90;;;0.83;;
18875;SDS011;9570;50.854;13.778;2023-12-20T03:06:50;0.67;;;0.67;;
18875;SDS011;9570;50.854;13.778;2023-12-20T03:09:16;0.80;;;0.80;;
18875;SDS011;9570;50.854;13.778;2023-12-20T03:11:41;0.87;;;0.87;;
18875;SDS011;9570;50.854;13.778;2023-12-20T03:14:06;0.63;;;0.63;;
18875;SDS011;9570;50.854;13.778;2023-12-20T03:16:32;0.70;;;0.70;;
18875;SDS011;9570;50.854;13.778;2023-12-20T03:18:58;0.60;;;0.60;;
18875;SDS011;9570;50.854;13.778;2023-12-20T03:21:23;0.63;;;0.63;;
18875;SDS011;9570;50.854;13.778;2023-12-20T03:23:49;0.70;;;0.60;;
18875;SDS011;9570;50.854;13.778;2023-12-20T03:26:14;0.80;;;0.80;;
18875;SDS011;9570;50.854;13.778;2023-12-20T03:28:40;0.70;;;0.70;;
18875;SDS011;9570;50.854;13.778;2023-12-20T03:31:05;0.70;;;0.70;;
18875;SDS011;9570;50.854;13.778;2023-12-20T03:33:31;1.93;;;0.80;;
18875;SDS011;9570;50.854;13.778;2023-12-20T03:35:56;0.70;;;0.70;;
18875;SDS011;9570;50.854;13.778;2023-12-20T03:38:22;0.60;;;0.60;;
18875;SDS011;9570;50.854;13.778;2023-12-20T03:40:49;0.60;;;0.60;;
18875;SDS011;9570;50.854;13.778;2023-12-20T03:43:14;0.77;;;0.77;;
18875;SDS011;9570;50.854;13.778;2023-12-20T03:45:41;0.70;;;0.70;;
18875;SDS011;9570;50.854;13.778;2023-12-20T03:48:07;0.60;;;0.60;;
18875;SDS011;9570;50.854;13.778;2023-12-20T03:50:32;0.63;;;0.63;;
18875;SDS011;9570;50.854;13.778;2023-12-20T03:52:58;0.63;;;0.63;;
18875;SDS011;9570;50.854;13.778;2023-12-20T03:55:24;0.60;;;0.60;;
18875;SDS011;9570;50.854;13.778;2023-12-20T03:57:49;0.50;;;0.50;;
18875;SDS011;9570;50.854;13.778;2023-12-20T04:00:15;0.87;;;0.70;;
18875;SDS011;9570;50.854;13.778;2023-12-20T04:02:41;0.60;;;0.60;;
18875;SDS011;9570;50.854;13.778;2023-12-20T04:05:07;0.50;;;0.50;;
18875;SDS011;9570;50.854;13.778;2023-12-20T04:07:34;0.53;;;0.53;;
18875;SDS011;9570;50.854;13.778;2023-12-20T04:10:00;0.50;;;0.50;;
18875;SDS011;9570;50.854;13.778;2023-12-20T04:12:26;0.60;;;0.60;;
18875;SDS011;9570;50.854;13.778;2023-12-20T04:14:53;0.70;;;0.70;;
18875;SDS011;9570;50.854;13.778;2023-12-20T04:17:19;0.70;;;0.70;;
18875;SDS011;9570;50.854;13.778;2023-12-20T04:19:47;0.83;;;0.60;;
18875;SDS011;9570;50.854;13.778;2023-12-20T04:22:13;0.50;;;0.50;;
18875;SDS011;9570;50.854;13.778;2023-12-20T04:24:38;0.70;;;0.70;;
18875;SDS011;9570;50.854;13.778;2023-12-20T04:27:04;0.70;;;0.70;;
18875;SDS011;9570;50.854;13.778;2023-12-20T04:29:29;0.80;;;0.80;;
18875;SDS011;9570;50.854;13.778;2023-12-20T04:31:55;0.60;;;0.60;;
18875;SDS011;9570;50.854;13.778;2023-12-20T04:34:20;0.57;;;0.57;;
18875;SDS011;9570;50.854;13.778;2023-12-20T04:36:47;0.60;;;0.60;;
18875;SDS011;9570;50.854;13.778;2023-12-20T04:39:12;0.70;;;0.70;;
18875;SDS011;9570;50.854;13.778;2023-12-20T04:41:38;1.00;;;0.70;;
18875;SDS011;9570;50.854;13.778;2023-12-20T04:44:04;1.43;;;1.07;;
18875;SDS011;9570;50.854;13.778;2023-12-20T04:46:31;0.57;;;0.57;;
18875;SDS011;9570;50.854;13.778;2023-12-20T04:48:56;0.60;;;0.60;;
18875;SDS011;9570;50.854;13.778;2023-12-20T04:51:22;0.50;;;0.50;;
18875;SDS011;9570;50.854;13.778;2023-12-20T04:53:47;0.50;;;0.50;;
18875;SDS011;9570;50.854;13.778;2023-12-20T04:56:13;0.63;;;0.63;;
18875;SDS011;9570;50.854;13.778;2023-12-20T04:58:38;0.70;;;0.60;;
18875;SDS011;9570;50.854;13.778;2023-12-20T05:01:08;0.60;;;0.60;;
18875;SDS011;9570;50.854;13.778;2023-12-20T05:03:34;0.50;;;0.50;;
18875;SDS011;9570;50.854;13.778;2023-12-20T05:05:59;0.63;;;0.63;;
18875;SDS011;9570;50.854;13.778;2023-12-20T05:08:25;0.50;;;0.50;;
18875;SDS011;9570;50.854;13.778;2023-12-20T05:10:52;0.60;;;0.60;;
18875;SDS011;9570;50.854;13.778;2023-12-20T05:13:19;0.73;;;0.73;;
18875;SDS011;9570;50.854;13.778;2023-12-20T05:15:45;0.60;;;0.60;;
18875;SDS011;9570;50.854;13.778;2023-12-20T05:18:10;0.60;;;0.60;;
18875;SDS011;9570;50.854;13.778;2023-12-20T05:20:36;0.67;;;0.67;;
18875;SDS011;9570;50.854;13.778;2023-12-20T05:23:02;0.60;;;0.60;;
18875;SDS011;9570;50.854;13.778;2023-12-20T05:25:27;0.60;;;0.60;;
18875;SDS011;9570;50.854;13.778;2023-12-20T05:27:53;0.80;;;0.80;;
18875;SDS011;9570;50.854;13.778;2023-12-20T05:30:18;0.60;;;0.60;;
18875;SDS011;9570;50.854;13.778;2023-12-20T05:32:44;0.50;;;0.50;;
18875;SDS011;9570;50.854;13.778;2023-12-20T05:35:09;0.57;;;0.57;;
18875;SDS011;9570;50.854;13.778;2023-12-20T05:37:35;0.50;;;0.50;;
18875;SDS011;9570;50.854;13.778;2023-12-20T05:40:00;0.50;;;0.50;;
18875;SDS011;9570;50.854;13.778;2023-12-20T05:42:25;0.50;;;0.50;;
18875;SDS011;9570;50.854;13.778;2023-12-20T05:44:51;0.53;;;0.53;;
18875;SDS011;9570;50.854;13.778;2023-12-20T05:47:16;0.60;;;0.60;;
18875;SDS011;9570;50.854;13.778;2023-12-20T05:49:42;0.50;;;0.50;;
18875;SDS011;9570;50.854;13.778;2023-12-20T05:52:09;0.50;;;0.50;;
18875;SDS011;9570;50.854;13.778;2023-12-20T05:54:34;0.57;;;0.57;;
18875;SDS011;9570;50.854;13.778;2023-12-20T05:57:00;0.60;;;0.60;;
18875;SDS011;9570;50.854;13.778;2023-12-20T05:59:25;0.50;;;0.50;;
18875;SDS011;9570;50.854;13.778;2023-12-20T06:01:51;0.60;;;0.60;;
18875;SDS011;9570;50.854;13.778;2023-12-20T06:04:16;0.60;;;0.60;;
18875;SDS011;9570;50.854;13.778;2023-12-20T06:06:42;0.50;;;0.50;;
18875;SDS011;9570;50.854;13.778;2023-12-20T06:09:08;0.60;;;0.60;;
18875;SDS011;9570;50.854;13.778;2023-12-20T06:11:34;0.50;;;0.50;;
18875;SDS011;9570;50.854;13.778;2023-12-20T06:13:59;0.50;;;0.50;;
18875;SDS011;9570;50.854;13.778;2023-12-20T06:16:25;0.77;;;0.60;;
18875;SDS011;9570;50.854;13.778;2023-12-20T06:18:50;0.60;;;0.60;;
18875;SDS011;9570;50.854;13.778;2023-12-20T06:21:16;0.40;;;0.40;;
18875;SDS011;9570;50.854;13.778;2023-12-20T06:23:41;0.60;;;0.60;;
18875;SDS011;9570;50.854;13.778;2023-12-20T06:26:07;0.60;;;0.60;;
18875;SDS011;9570;50.854;13.778;2023-12-20T06:28:32;2.37;;;0.70;;
18875;SDS011;9570;50.854;13.778;2023-12-20T06:30:58;0.50;;;0.50;;
18875;SDS011;9570;50.854;13.778;2023-12-20T06:33:24;0.50;;;0.50;;
18875;SDS011;9570;50.854;13.778;2023-12-20T06:35:49;0.50;;;0.50;;
18875;SDS011;9570;50.854;13.778;2023-12-20T06:38:15;0.77;;;0.60;;
18875;SDS011;9570;50.854;13.778;2023-12-20T06:40:41;0.50;;;0.50;;
18875;SDS011;9570;50.854;13.778;2023-12-20T06:43:07;0.60;;;0.60;;
18875;SDS011;9570;50.854;13.778;2023-12-20T06:45:33;0.70;;;0.70;;
18875;SDS011;9570;50.854;13.778;2023-12-20T06:47:58;0.83;;;0.60;;
18875;SDS011;9570;50.854;13.778;2023-12-20T06:50:24;0.90;;;0.80;;
18875;SDS011;9570;50.854;13.778;2023-12-20T06:52:49;0.70;;;0.70;;
18875;SDS011;9570;50.854;13.778;2023-12-20T06:55:15;0.53;;;0.53;;
18875;SDS011;9570;50.854;13.778;2023-12-20T06:57:40;0.60;;;0.60;;
18875;SDS011;9570;50.854;13.778;2023-12-20T07:00:06;0.60;;;0.60;;
18875;SDS011;9570;50.854;13.778;2023-12-20T07:02:33;0.60;;;0.60;;
18875;SDS011;9570;50.854;13.778;2023-12-20T07:04:59;0.60;;;0.60;;
18875;SDS011;9570;50.854;13.778;2023-12-20T07:07:24;1.40;;;0.63;;
18875;SDS011;9570;50.854;13.778;2023-12-20T07:09:51;0.77;;;0.77;;
18875;SDS011;9570;50.854;13.778;2023-12-20T07:12:16;0.80;;;0.80;;
18875;SDS011;9570;50.854;13.778;2023-12-20T07:14:44;0.90;;;0.67;;
18875;SDS011;9570;50.854;13.778;2023-12-20T07:17:10;0.80;;;0.80;;
18875;SDS011;9570;50.854;13.778;2023-12-20T07:19:37;0.80;;;0.80;;
18875;SDS011;9570;50.854;13.778;2023-12-20T07:22:03;1.30;;;0.90;;
18875;SDS011;9570;50.854;13.778;2023-12-20T07:24:29;1.10;;;1.10;;
18875;SDS011;9570;50.854;13.778;2023-12-20T07:26:54;2.13;;;1.00;;
18875;SDS011;9570;50.854;13.778;2023-12-20T07:29:20;1.30;;;1.17;;
18875;SDS011;9570;50.854;13.778;2023-12-20T07:31:45;1.30;;;1.20;;
18875;SDS011;9570;50.854;13.778;2023-12-20T07:34:11;1.57;;;1.20;;
18875;SDS011;9570;50.854;13.778;2023-12-20T07:36:36;1.40;;;1.30;;
18875;SDS011;9570;50.854;13.778;2023-12-20T07:39:02;1.60;;;1.50;;
18875;SDS011;9570;50.854;13.778;2023-12-20T07:41:28;1.90;;;1.80;;
18875;SDS011;9570;50.854;13.778;2023-12-20T07:43:53;2.07;;;1.90;;
18875;SDS011;9570;50.854;13.778;2023-12-20T07:46:20;2.47;;;2.00;;
18875;SDS011;9570;50.854;13.778;2023-12-20T07:48:48;3.90;;;2.07;;
18875;SDS011;9570;50.854;13.778;2023-12-20T07:51:13;2.20;;;2.00;;
18875;SDS011;9570;50.854;13.778;2023-12-20T07:53:39;1.90;;;1.80;;
18875;SDS011;9570;50.854;13.778;2023-12-20T07:56:14;2.57;;;2.30;;
18875;SDS011;9570;50.854;13.778;2023-12-20T07:58:44;2.00;;;1.90;;
18875;SDS011;9570;50.854;13.778;2023-12-20T08:01:10;2.57;;;2.37;;
18875;SDS011;9570;50.854;13.778;2023-12-20T08:03:36;2.57;;;2.37;;
18875;SDS011;9570;50.854;13.778;2023-12-20T08:06:02;2.97;;;2.10;;
18875;SDS011;9570;50.854;13.778;2023-12-20T08:08:27;2.70;;;1.80;;
18875;SDS011;9570;50.854;13.778;2023-12-20T08:10:53;2.83;;;1.87;;
18875;SDS011;9570;50.854;13.778;2023-12-20T08:13:18;2.47;;;1.67;;
18875;SDS011;9570;50.854;13.778;2023-12-20T08:15:44;5.30;;;2.00;;
18875;SDS011;9570;50.854;13.778;2023-12-20T08:18:09;1.87;;;1.50;;
18875;SDS011;9570;50.854;13.778;2023-12-20T08:20:35;3.00;;;1.70;;
18875;SDS011;9570;50.854;13.778;2023-12-20T08:23:00;3.33;;;1.60;;
18875;SDS011;9570;50.854;13.778;2023-12-20T08:25:26;1.97;;;1.77;;
18875;SDS011;9570;50.854;13.778;2023-12-20T08:27:52;1.73;;;1.63;;
18875;SDS011;9570;50.854;13.778;2023-12-20T08:30:18;2.17;;;1.60;;
18875;SDS011;9570;50.854;13.778;2023-12-20T08:32:46;3.07;;;1.67;;
18875;SDS011;9570;50.854;13.778;2023-12-20T08:35:12;3.60;;;1.90;;
18875;SDS011;9570;50.854;13.778;2023-12-20T08:37:38;2.97;;;1.50;;
18875;SDS011;9570;50.854;13.778;2023-12-20T08:40:03;4.23;;;1.73;;
18875;SDS011;9570;50.854;13.778;2023-12-20T08:42:30;4.07;;;1.90;;
18875;SDS011;9570;50.854;13.778;2023-12-20T08:44:57;1.70;;;1.50;;
18875;SDS011;9570;50.854;13.778;2023-12-20T08:47:23;2.13;;;1.50;;
18875;SDS011;9570;50.854;13.778;2023-12-20T08:49:49;2.13;;;1.50;;
18875;SDS011;9570;50.854;13.778;2023-12-20T08:52:14;2.77;;;1.40;;
18875;SDS011;9570;50.854;13.778;2023-12-20T08:54:40;2.50;;;1.40;;
18875;SDS011;9570;50.854;13.778;2023-12-20T08:57:05;2.83;;;1.00;;
18875;SDS011;9570;50.854;13.778;2023-12-20T08:59:31;2.80;;;1.20;;
18875;SDS011;9570;50.854;13.778;2023-12-20T09:01:57;2.47;;;1.40;;
18875;SDS011;9570;50.854;13.778;2023-12-20T09:04:23;2.70;;;1.30;;
18875;SDS011;9570;50.854;13.778;2023-12-20T09:06:48;2.80;;;1.37;;
18875;SDS011;9570;50.854;13.778;2023-12-20T09:09:14;1.87;;;1.43;;
18875;SDS011;9570;50.854;13.778;2023-12-20T09:11:39;2.53;;;1.30;;
18875;SDS011;9570;50.854;13.778;2023-12-20T09:14:05;1.93;;;1.20;;
18875;SDS011;9570;50.854;13.778;2023-12-20T09:16:31;1.67;;;1.37;;
18875;SDS011;9570;50.854;13.778;2023-12-20T09:18:57;1.47;;;1.07;;
18875;SDS011;9570;50.854;13.778;2023-12-20T09:21:22;3.13;;;1.33;;
18875;SDS011;9570;50.854;13.778;2023-12-20T09:23:48;2.33;;;1.10;;
18875;SDS011;9570;50.854;13.778;2023-12-20T09:26:13;2.27;;;1.27;;
18875;SDS011;9570;50.854;13.778;2023-12-20T09:28:39;3.47;;;1.27;;
18875;SDS011;9570;50.854;13.778;2023-12-20T09:31:05;1.73;;;1.20;;
18875;SDS011;9570;50.854;13.778;2023-12-20T09:33:31;1.70;;;1.20;;
18875;SDS011;9570;50.854;13.778;2023-12-20T09:35:57;2.57;;;1.10;;
18875;SDS011;9570;50.854;13.778;2023-12-20T09:38:23;1.67;;;1.03;;
18875;SDS011;9570;50.854;13.778;2023-12-20T09:40:48;0.97;;;0.90;;
18875;SDS011;9570;50.854;13.778;2023-12-20T09:43:14;2.13;;;1.10;;
18875;SDS011;9570;50.854;13.778;2023-12-20T09:45:45;1.00;;;0.90;;
18875;SDS011;9570;50.854;13.778;2023-12-20T09:48:12;1.90;;;1.20;;
18875;SDS011;9570;50.854;13.778;2023-12-20T09:50:39;1.53;;;0.97;;
18875;SDS011;9570;50.854;13.778;2023-12-20T09:53:05;1.80;;;1.10;;
18875;SDS011;9570;50.854;13.778;2023-12-20T09:55:34;3.20;;;1.33;;
18875;SDS011;9570;50.854;13.778;2023-12-20T09:58:01;1.50;;;1.00;;
18875;SDS011;9570;50.854;13.778;2023-12-20T10:00:27;1.93;;;1.13;;
18875;SDS011;9570;50.854;13.778;2023-12-20T10:02:57;3.27;;;1.10;;
18875;SDS011;9570;50.854;13.778;2023-12-20T10:05:27;3.30;;;1.17;;
18875;SDS011;9570;50.854;13.778;2023-12-20T10:07:54;1.77;;;1.10;;
18875;SDS011;9570;50.854;13.778;2023-12-20T10:10:19;1.43;;;1.20;;
18875;SDS011;9570;50.854;13.778;2023-12-20T10:13:01;1.87;;;1.13;;
18875;SDS011;9570;50.854;13.778;2023-12-20T10:15:28;3.00;;;1.30;;
18875;SDS011;9570;50.854;13.778;2023-12-20T10:17:54;5.13;;;1.50;;
18875;SDS011;9570;50.854;13.778;2023-12-20T10:20:20;3.57;;;1.10;;
18875;SDS011;9570;50.854;13.778;2023-12-20T10:22:45;4.10;;;1.40;;
18875;SDS011;9570;50.854;13.778;2023-12-20T10:25:11;3.33;;;1.20;;
18875;SDS011;9570;50.854;13.778;2023-12-20T10:27:37;3.77;;;1.30;;
18875;SDS011;9570;50.854;13.778;2023-12-20T10:30:02;2.57;;;1.30;;
18875;SDS011;9570;50.854;13.778;2023-12-20T10:32:29;2.77;;;1.30;;
18875;SDS011;9570;50.854;13.778;2023-12-20T10:34:55;2.60;;;1.10;;
18875;SDS011;9570;50.854;13.778;2023-12-20T10:37:21;1.60;;;1.10;;
18875;SDS011;9570;50.854;13.778;2023-12-20T10:39:50;4.47;;;1.30;;
18875;SDS011;9570;50.854;13.778;2023-12-20T10:42:17;5.00;;;1.60;;
18875;SDS011;9570;50.854;13.778;2023-12-20T10:44:46;2.33;;;1.40;;
18875;SDS011;9570;50.854;13.778;2023-12-20T10:47:13;3.57;;;1.30;;
18875;SDS011;9570;50.854;13.778;2023-12-20T10:49:38;2.73;;;1.30;;
18875;SDS011;9570;50.854;13.778;2023-12-20T10:52:05;3.53;;;1.33;;
18875;SDS011;9570;50.854;13.778;2023-12-20T10:54:31;3.30;;;1.40;;
18875;SDS011;9570;50.854;13.778;2023-12-20T10:56:57;3.27;;;1.47;;
18875;SDS011;9570;50.854;13.778;2023-12-20T10:59:23;4.50;;;1.40;;
18875;SDS011;9570;50.854;13.778;2023-12-20T11:01:50;2.70;;;1.37;;
18875;SDS011;9570;50.854;13.778;2023-12-20T11:04:19;3.80;;;1.50;;
18875;SDS011;9570;50.854;13.778;2023-12-20T11:06:51;2.87;;;1.40;;
18875;SDS011;9570;50.854;13.778;2023-12-20T11:11:59;1.77;;;1.27;;
18875;SDS011;9570;50.854;13.778;2023-12-20T11:14:54;2.63;;;1.23;;
18875;SDS011;9570;50.854;13.778;2023-12-20T11:17:22;3.77;;;1.60;;
18875;SDS011;9570;50.854;13.778;2023-12-20T11:22:27;3.20;;;2.00;;
18875;SDS011;9570;50.854;13.778;2023-12-20T11:24:58;3.07;;;2.43;;
18875;SDS011;9570;50.854;13.778;2023-12-20T11:27:33;3.10;;;1.60;;
18875;SDS011;9570;50.854;13.778;2023-12-20T11:29:59;3.20;;;1.70;;
18875;SDS011;9570;50.854;13.778;2023-12-20T11:34:55;3.93;;;1.50;;
18875;SDS011;9570;50.854;13.778;2023-12-20T11:37:27;4.10;;;1.30;;
18875;SDS011;9570;50.854;13.778;2023-12-20T11:40:00;3.43;;;1.40;;
18875;SDS011;9570;50.854;13.778;2023-12-20T11:42:28;1.20;;;1.10;;
18875;SDS011;9570;50.854;13.778;2023-12-20T11:45:14;3.60;;;1.57;;
18875;SDS011;9570;50.854;13.778;2023-12-20T11:47:42;4.27;;;1.40;;
18875;SDS011;9570;50.854;13.778;2023-12-20T11:50:11;3.67;;;1.57;;
18875;SDS011;9570;50.854;13.778;2023-12-20T11:52:36;2.90;;;1.50;;
18875;SDS011;9570;50.854;13.778;2023-12-20T11:55:02;2.93;;;1.33;;
18875;SDS011;9570;50.854;13.778;2023-12-20T11:57:28;2.07;;;1.20;;
18875;SDS011;9570;50.854;13.778;2023-12-20T11:59:54;4.40;;;1.40;;
18875;SDS011;9570;50.854;13.778;2023-12-20T12:02:21;2.97;;;1.43;;
18875;SDS011;9570;50.854;13.778;2023-12-20T12:04:48;3.77;;;1.67;;
18875;SDS011;9570;50.854;13.778;2023-12-20T12:07:13;3.80;;;1.67;;
18875;SDS011;9570;50.854;13.778;2023-12-20T12:09:39;4.90;;;1.43;;
18875;SDS011;9570;50.854;13.778;2023-12-20T12:12:04;2.87;;;1.43;;
18875;SDS011;9570;50.854;13.778;2023-12-20T12:14:30;4.00;;;1.60;;
18875;SDS011;9570;50.854;13.778;2023-12-20T12:16:56;4.60;;;1.40;;
18875;SDS011;9570;50.854;13.778;2023-12-20T12:19:23;2.47;;;1.63;;
18875;SDS011;9570;50.854;13.778;2023-12-20T12:21:49;1.73;;;1.43;;
18875;SDS011;9570;50.854;13.778;2023-12-20T12:24:15;5.53;;;1.40;;
18875;SDS011;9570;50.854;13.778;2023-12-20T12:26:50;2.93;;;1.10;;
18875;SDS011;9570;50.854;13.778;2023-12-20T12:29:16;4.57;;;1.50;;
18875;SDS011;9570;50.854;13.778;2023-12-20T12:31:42;2.30;;;1.37;;
18875;SDS011;9570;50.854;13.778;2023-12-20T12:34:07;1.30;;;1.20;;
18875;SDS011;9570;50.854;13.778;2023-12-20T12:36:34;4.37;;;1.77;;
18875;SDS011;9570;50.854;13.778;2023-12-20T12:39:02;3.30;;;1.40;;
18875;SDS011;9570;50.854;13.778;2023-12-20T12:41:29;2.53;;;1.10;;
18875;SDS011;9570;50.854;13.778;2023-12-20T12:43:55;3.63;;;1.40;;
18875;SDS011;9570;50.854;13.778;2023-12-20T12:46:20;3.80;;;1.33;;
18875;SDS011;9570;50.854;13.778;2023-12-20T12:48:46;5.10;;;1.50;;
18875;SDS011;9570;50.854;13.778;2023-12-20T12:51:12;4.50;;;1.53;;
18875;SDS011;9570;50.854;13.778;2023-12-20T12:53:38;2.60;;;1.30;;
18875;SDS011;9570;50.854;13.778;2023-12-20T12:56:04;4.20;;;1.30;;
18875;SDS011;9570;50.854;13.778;2023-12-20T12:58:30;4.50;;;1.63;;
18875;SDS011;9570;50.854;13.778;2023-12-20T13:00:56;5.33;;;1.40;;
18875;SDS011;9570;50.854;13.778;2023-12-20T13:03:21;3.80;;;1.33;;
18875;SDS011;9570;50.854;13.778;2023-12-20T13:05:47;4.33;;;1.80;;
18875;SDS011;9570;50.854;13.778;2023-12-20T13:08:13;2.73;;;1.40;;
18875;SDS011;9570;50.854;13.778;2023-12-20T13:10:39;3.77;;;1.40;;
18875;SDS011;9570;50.854;13.778;2023-12-20T13:13:05;3.03;;;1.20;;
18875;SDS011;9570;50.854;13.778;2023-12-20T13:15:30;1.77;;;1.20;;
18875;SDS011;9570;50.854;13.778;2023-12-20T13:17:55;3.83;;;1.57;;
18875;SDS011;9570;50.854;13.778;2023-12-20T13:20:21;3.77;;;1.50;;
18875;SDS011;9570;50.854;13.778;2023-12-20T13:22:47;3.13;;;1.40;;
18875;SDS011;9570;50.854;13.778;2023-12-20T13:25:13;2.07;;;1.20;;
18875;SDS011;9570;50.854;13.778;2023-12-20T13:27:38;4.70;;;1.70;;
18875;SDS011;9570;50.854;13.778;2023-12-20T13:30:04;3.27;;;1.57;;
18875;SDS011;9570;50.854;13.778;2023-12-20T13:32:30;4.30;;;1.37;;
18875;SDS011;9570;50.854;13.778;2023-12-20T13:34:56;3.00;;;1.50;;
18875;SDS011;9570;50.854;13.778;2023-12-20T13:37:22;3.57;;;1.40;;
18875;SDS011;9570;50.854;13.778;2023-12-20T13:39:47;3.47;;;1.57;;
18875;SDS011;9570;50.854;13.778;2023-12-20T13:42:13;3.40;;;1.80;;
18875;SDS011;9570;50.854;13.778;2023-12-20T13:44:39;2.97;;;1.90;;
18875;SDS011;9570;50.854;13.778;2023-12-20T13:47:05;4.20;;;1.80;;
18875;SDS011;9570;50.854;13.778;2023-12-20T13:49:31;2.77;;;1.50;;
18875;SDS011;9570;50.854;13.778;2023-12-20T13:51:56;2.80;;;1.23;;
18875;SDS011;9570;50.854;13.778;2023-12-20T13:54:23;4.80;;;1.50;;
18875;SDS011;9570;50.854;13.778;2023-12-20T13:56:49;3.73;;;1.40;;
18875;SDS011;9570;50.854;13.778;2023-12-20T13:59:14;3.27;;;1.27;;
18875;SDS011;9570;50.854;13.778;2023-12-20T14:01:40;2.30;;;1.30;;
18875;SDS011;9570;50.854;13.778;2023-12-20T14:04:05;1.83;;;1.20;;
18875;SDS011;9570;50.854;13.778;2023-12-20T14:06:31;2.43;;;1.37;;
18875;SDS011;9570;50.854;13.778;2023-12-20T14:08:57;3.73;;;1.37;;
18875;SDS011;9570;50.854;13.778;2023-12-20T14:11:25;6.67;;;1.30;;
18875;SDS011;9570;50.854;13.778;2023-12-20T14:13:51;1.63;;;1.37;;
18875;SDS011;9570;50.854;13.778;2023-12-20T14:16:16;3.23;;;1.40;;
18875;SDS011;9570;50.854;13.778;2023-12-20T14:18:42;2.60;;;1.30;;
18875;SDS011;9570;50.854;13.778;2023-12-20T14:21:07;3.67;;;1.27;;
18875;SDS011;9570;50.854;13.778;2023-12-20T14:23:33;2.73;;;1.30;;
18875;SDS011;9570;50.854;13.778;2023-12-20T14:25:58;2.13;;;1.30;;
18875;SDS011;9570;50.854;13.778;2023-12-20T14:28:24;2.00;;;1.17;;
18875;SDS011;9570;50.854;13.778;2023-12-20T14:30:50;2.47;;;1.30;;
18875;SDS011;9570;50.854;13.778;2023-12-20T14:33:16;4.17;;;1.20;;
18875;SDS011;9570;50.854;13.778;2023-12-20T14:35:41;2.13;;;1.30;;
18875;SDS011;9570;50.854;13.778;2023-12-20T14:38:09;4.90;;;1.47;;
18875;SDS011;9570;50.854;13.778;2023-12-20T14:40:34;3.27;;;1.37;;
18875;SDS011;9570;50.854;13.778;2023-12-20T14:43:00;3.20;;;1.40;;
18875;SDS011;9570;50.854;13.778;2023-12-20T14:45:26;2.83;;;1.20;;
18875;SDS011;9570;50.854;13.778;2023-12-20T14:47:52;1.30;;;1.20;;
18875;SDS011;9570;50.854;13.778;2023-12-20T14:50:18;2.27;;;1.20;;